Main page
METAR-TAF:

METAR-TAF

Airports :

Rajahmundry Airport

Rajahmundry, India

latitude: 17-06-37N, longitude: 81-49-06E, elevation: 46 m

Current weather observation

The report was made 1 hour and 22 minutes ago, at 16:00 UTC
Wind 4 kt from the South/Southeast
Temperature 28°C
Humidity 84%
Pressure 1011 hPa
Visibility: 4000 m
Scattered clouds at a height of 2000 ft
mist

METAR: VORY 211600Z 15004KT 4000 BR SCT020 28/25 Q1011 NOSIG

Time: 22:52 (17:22 UTC)

Forecast

The report was made 9 hours and 22 minutes ago, at 08:00 UTC
Forecast valid from 21 at 09 UTC to 21 at 18 UTC
Wind 5 kt from the West
Visibility: 5000 m
Scattered clouds at a height of 1500 ft
Scattered clouds at a height of 10000 ft
haze

TAF: VORY 210800Z 2109/2118 28005KT 5000 HZ SCT015 SCT100

Weather observations and forecasts of more than 4000 airports (METAR and TAF reports).

The available stations are represented by yellow and red dots on the map.

Hover mouse over dot to see the name of the station.

Then click to see weather observations and forecasts.

To change the map : click on the green buttons with a black cross to zoom in, on the green button with a dash to zoom out, or on the green arrows for adjacent maps.


METAR-TAF: